sensor_id;sensor_type;location;lat;lon;timestamp;pressure;altitude;pressure_sealevel;temperature;humidity
69971;BME280;57301;50.328;8.542;2023-11-25T00:01:28;97698.66;;;1.76;89.91
69971;BME280;57301;50.328;8.542;2023-11-25T00:03:55;97699.25;;;1.69;90.30
69971;BME280;57301;50.328;8.542;2023-11-25T00:06:22;97705.59;;;1.66;90.14
69971;BME280;57301;50.328;8.542;2023-11-25T00:08:48;97702.72;;;1.80;89.52
69971;BME280;57301;50.328;8.542;2023-11-25T00:11:15;97700.34;;;1.66;89.98
69971;BME280;57301;50.328;8.542;2023-11-25T00:13:53;97710.84;;;1.77;89.69
69971;BME280;57301;50.328;8.542;2023-11-25T00:16:20;97712.28;;;1.70;89.66
69971;BME280;57301;50.328;8.542;2023-11-25T00:18:46;97709.16;;;1.54;90.14
69971;BME280;57301;50.328;8.542;2023-11-25T00:21:14;97711.66;;;1.55;90.08
69971;BME280;57301;50.328;8.542;2023-11-25T00:23:40;97717.97;;;1.53;90.25
69971;BME280;57301;50.328;8.542;2023-11-25T00:26:07;97718.81;;;1.65;89.93
69971;BME280;57301;50.328;8.542;2023-11-25T00:28:34;97717.28;;;1.62;90.12
69971;BME280;57301;50.328;8.542;2023-11-25T00:31:00;97716.09;;;1.66;89.35
69971;BME280;57301;50.328;8.542;2023-11-25T00:33:27;97724.00;;;1.66;89.70
69971;BME280;57301;50.328;8.542;2023-11-25T00:35:54;97731.97;;;1.65;89.50
69971;BME280;57301;50.328;8.542;2023-11-25T00:38:21;97741.28;;;1.57;89.68
69971;BME280;57301;50.328;8.542;2023-11-25T00:40:48;97750.69;;;1.49;90.22
69971;BME280;57301;50.328;8.542;2023-11-25T00:43:15;97747.03;;;1.63;89.81
69971;BME280;57301;50.328;8.542;2023-11-25T00:45:42;97748.31;;;1.57;89.56
69971;BME280;57301;50.328;8.542;2023-11-25T00:48:09;97759.53;;;1.48;90.35
69971;BME280;57301;50.328;8.542;2023-11-25T00:50:35;97764.91;;;1.57;90.06
69971;BME280;57301;50.328;8.542;2023-11-25T00:53:02;97771.44;;;1.41;90.67
69971;BME280;57301;50.328;8.542;2023-11-25T00:55:29;97768.34;;;1.36;91.10
69971;BME280;57301;50.328;8.542;2023-11-25T00:57:56;97779.84;;;1.57;89.89
69971;BME280;57301;50.328;8.542;2023-11-25T01:00:22;97790.06;;;1.38;90.68
69971;BME280;57301;50.328;8.542;2023-11-25T01:02:52;97778.94;;;1.34;90.46
69971;BME280;57301;50.328;8.542;2023-11-25T01:05:21;97788.31;;;1.49;90.00
69971;BME280;57301;50.328;8.542;2023-11-25T01:07:47;97793.22;;;1.54;89.65
69971;BME280;57301;50.328;8.542;2023-11-25T01:10:14;97796.28;;;1.37;89.93
69971;BME280;57301;50.328;8.542;2023-11-25T01:12:41;97793.66;;;1.37;89.97
69971;BME280;57301;50.328;8.542;2023-11-25T01:15:08;97795.81;;;1.43;89.98
69971;BME280;57301;50.328;8.542;2023-11-25T01:17:34;97797.50;;;1.44;90.07
69971;BME280;57301;50.328;8.542;2023-11-25T01:20:01;97798.88;;;1.60;89.18
69971;BME280;57301;50.328;8.542;2023-11-25T01:22:28;97798.94;;;1.48;89.56
69971;BME280;57301;50.328;8.542;2023-11-25T01:24:54;97804.78;;;1.51;89.70
69971;BME280;57301;50.328;8.542;2023-11-25T01:27:21;97812.63;;;1.40;89.39
69971;BME280;57301;50.328;8.542;2023-11-25T01:29:50;97818.53;;;1.55;89.53
69971;BME280;57301;50.328;8.542;2023-11-25T01:32:18;97815.19;;;1.53;89.28
69971;BME280;57301;50.328;8.542;2023-11-25T01:34:44;97815.09;;;1.54;88.61
69971;BME280;57301;50.328;8.542;2023-11-25T01:37:11;97817.53;;;1.45;89.01
69971;BME280;57301;50.328;8.542;2023-11-25T01:39:41;97822.28;;;1.64;88.21
69971;BME280;57301;50.328;8.542;2023-11-25T01:42:08;97828.78;;;1.47;88.53
69971;BME280;57301;50.328;8.542;2023-11-25T01:44:34;97837.44;;;1.60;88.38
69971;BME280;57301;50.328;8.542;2023-11-25T01:47:01;97838.19;;;1.38;88.76
69971;BME280;57301;50.328;8.542;2023-11-25T01:49:28;97843.81;;;1.45;88.66
69971;BME280;57301;50.328;8.542;2023-11-25T01:51:55;97848.94;;;1.46;88.63
69971;BME280;57301;50.328;8.542;2023-11-25T01:54:21;97853.88;;;1.51;88.55
69971;BME280;57301;50.328;8.542;2023-11-25T01:56:53;97866.56;;;1.57;88.26
69971;BME280;57301;50.328;8.542;2023-11-25T01:59:22;97876.06;;;1.47;88.60
69971;BME280;57301;50.328;8.542;2023-11-25T02:01:50;97874.88;;;1.51;88.77
69971;BME280;57301;50.328;8.542;2023-11-25T02:04:17;97881.16;;;1.37;89.27
69971;BME280;57301;50.328;8.542;2023-11-25T02:06:44;97883.38;;;1.30;89.71
69971;BME280;57301;50.328;8.542;2023-11-25T02:09:11;97883.34;;;1.43;89.18
69971;BME280;57301;50.328;8.542;2023-11-25T02:11:54;97890.16;;;1.46;88.88
69971;BME280;57301;50.328;8.542;2023-11-25T02:14:23;97891.53;;;1.39;89.02
69971;BME280;57301;50.328;8.542;2023-11-25T02:16:54;97896.88;;;1.50;88.42
69971;BME280;57301;50.328;8.542;2023-11-25T02:19:23;97898.78;;;1.48;88.33
69971;BME280;57301;50.328;8.542;2023-11-25T02:21:52;97897.91;;;1.23;89.22
69971;BME280;57301;50.328;8.542;2023-11-25T02:24:19;97897.25;;;1.32;88.66
69971;BME280;57301;50.328;8.542;2023-11-25T02:26:46;97887.19;;;1.26;89.21
69971;BME280;57301;50.328;8.542;2023-11-25T02:29:13;97896.13;;;1.24;89.39
69971;BME280;57301;50.328;8.542;2023-11-25T02:31:40;97895.50;;;1.20;89.60
69971;BME280;57301;50.328;8.542;2023-11-25T02:34:09;97899.78;;;1.21;89.39
69971;BME280;57301;50.328;8.542;2023-11-25T02:36:36;97900.03;;;1.18;89.72
69971;BME280;57301;50.328;8.542;2023-11-25T02:39:04;97899.88;;;1.32;89.32
69971;BME280;57301;50.328;8.542;2023-11-25T02:41:31;97894.06;;;1.40;88.86
69971;BME280;57301;50.328;8.542;2023-11-25T02:43:58;97888.25;;;1.24;89.15
69971;BME280;57301;50.328;8.542;2023-11-25T02:46:25;97888.25;;;1.24;89.55
69971;BME280;57301;50.328;8.542;2023-11-25T02:48:52;97887.22;;;1.14;89.52
69971;BME280;57301;50.328;8.542;2023-11-25T02:51:18;97891.72;;;1.24;89.58
69971;BME280;57301;50.328;8.542;2023-11-25T02:53:46;97893.72;;;1.21;89.62
69971;BME280;57301;50.328;8.542;2023-11-25T02:56:12;97888.19;;;1.37;89.18
69971;BME280;57301;50.328;8.542;2023-11-25T02:58:39;97890.72;;;1.38;89.01
69971;BME280;57301;50.328;8.542;2023-11-25T03:01:05;97896.16;;;1.35;89.44
69971;BME280;57301;50.328;8.542;2023-11-25T03:03:34;97892.44;;;1.26;89.55
69971;BME280;57301;50.328;8.542;2023-11-25T03:06:03;97894.88;;;1.41;89.65
69971;BME280;57301;50.328;8.542;2023-11-25T03:08:32;97892.50;;;1.38;89.42
69971;BME280;57301;50.328;8.542;2023-11-25T03:11:01;97888.03;;;1.51;89.20
69971;BME280;57301;50.328;8.542;2023-11-25T03:13:32;97887.19;;;1.50;89.28
69971;BME280;57301;50.328;8.542;2023-11-25T03:16:01;97898.97;;;1.45;89.07
69971;BME280;57301;50.328;8.542;2023-11-25T03:18:27;97890.47;;;1.41;89.37
69971;BME280;57301;50.328;8.542;2023-11-25T03:20:54;97903.91;;;1.49;89.26
69971;BME280;57301;50.328;8.542;2023-11-25T03:23:20;97900.66;;;1.46;88.91
69971;BME280;57301;50.328;8.542;2023-11-25T03:25:47;97903.41;;;1.44;89.24
69971;BME280;57301;50.328;8.542;2023-11-25T03:28:13;97902.06;;;1.39;89.69
69971;BME280;57301;50.328;8.542;2023-11-25T03:30:41;97902.44;;;1.45;89.16
69971;BME280;57301;50.328;8.542;2023-11-25T03:33:08;97894.47;;;1.23;89.85
69971;BME280;57301;50.328;8.542;2023-11-25T03:35:36;97906.91;;;1.32;89.87
69971;BME280;57301;50.328;8.542;2023-11-25T03:38:02;97913.28;;;1.41;89.45
69971;BME280;57301;50.328;8.542;2023-11-25T03:40:29;97904.41;;;1.30;89.59
69971;BME280;57301;50.328;8.542;2023-11-25T03:42:56;97905.00;;;1.34;89.15
69971;BME280;57301;50.328;8.542;2023-11-25T03:45:22;97917.81;;;1.39;89.53
69971;BME280;57301;50.328;8.542;2023-11-25T03:47:49;97913.56;;;1.25;89.66
69971;BME280;57301;50.328;8.542;2023-11-25T03:50:18;97905.56;;;1.26;89.60
69971;BME280;57301;50.328;8.542;2023-11-25T03:52:44;97900.50;;;1.36;89.60
69971;BME280;57301;50.328;8.542;2023-11-25T03:55:12;97917.53;;;1.30;89.96
69971;BME280;57301;50.328;8.542;2023-11-25T03:57:38;97919.38;;;1.17;90.19
69971;BME280;57301;50.328;8.542;2023-11-25T04:00:06;97916.38;;;1.22;90.57
69971;BME280;57301;50.328;8.542;2023-11-25T04:02:46;97915.34;;;1.24;90.17
69971;BME280;57301;50.328;8.542;2023-11-25T04:05:13;97916.59;;;1.31;89.87
69971;BME280;57301;50.328;8.542;2023-11-25T04:07:40;97918.56;;;1.28;89.59
69971;BME280;57301;50.328;8.542;2023-11-25T04:10:08;97923.81;;;1.28;89.95
69971;BME280;57301;50.328;8.542;2023-11-25T04:12:46;97927.31;;;1.52;89.81
69971;BME280;57301;50.328;8.542;2023-11-25T04:15:14;97931.72;;;1.28;90.20
69971;BME280;57301;50.328;8.542;2023-11-25T04:17:42;97925.19;;;1.33;90.19
69971;BME280;57301;50.328;8.542;2023-11-25T04:20:10;97931.63;;;1.53;89.43
69971;BME280;57301;50.328;8.542;2023-11-25T04:22:44;97935.59;;;1.59;89.21
69971;BME280;57301;50.328;8.542;2023-11-25T04:25:12;97935.66;;;1.70;88.84
69971;BME280;57301;50.328;8.542;2023-11-25T04:27:40;97937.75;;;1.89;88.39
69971;BME280;57301;50.328;8.542;2023-11-25T04:30:08;97942.75;;;1.81;88.43
69971;BME280;57301;50.328;8.542;2023-11-25T04:32:36;97945.69;;;2.00;88.37
69971;BME280;57301;50.328;8.542;2023-11-25T04:35:03;97939.59;;;2.00;88.04
69971;BME280;57301;50.328;8.542;2023-11-25T04:37:33;97947.53;;;2.11;87.99
69971;BME280;57301;50.328;8.542;2023-11-25T04:40:00;97952.63;;;2.01;88.33
69971;BME280;57301;50.328;8.542;2023-11-25T04:42:27;97938.06;;;2.08;87.83
69971;BME280;57301;50.328;8.542;2023-11-25T04:44:54;97939.72;;;1.98;88.41
69971;BME280;57301;50.328;8.542;2023-11-25T04:47:20;97938.81;;;2.10;88.49
69971;BME280;57301;50.328;8.542;2023-11-25T04:49:47;97936.25;;;1.98;88.00
69971;BME280;57301;50.328;8.542;2023-11-25T04:52:13;97933.00;;;1.94;88.34
69971;BME280;57301;50.328;8.542;2023-11-25T04:54:40;97934.47;;;1.98;88.22
69971;BME280;57301;50.328;8.542;2023-11-25T04:57:08;97942.81;;;1.92;88.75
69971;BME280;57301;50.328;8.542;2023-11-25T04:59:34;97936.72;;;1.92;88.62
69971;BME280;57301;50.328;8.542;2023-11-25T05:02:01;97939.84;;;2.08;88.87
69971;BME280;57301;50.328;8.542;2023-11-25T05:04:30;97939.53;;;2.12;88.76
69971;BME280;57301;50.328;8.542;2023-11-25T05:06:58;97935.38;;;2.21;88.19
69971;BME280;57301;50.328;8.542;2023-11-25T05:09:24;97944.94;;;2.22;88.60
69971;BME280;57301;50.328;8.542;2023-11-25T05:11:53;97932.50;;;2.24;88.99
69971;BME280;57301;50.328;8.542;2023-11-25T05:14:20;97933.03;;;2.40;88.18
69971;BME280;57301;50.328;8.542;2023-11-25T05:16:47;97928.09;;;2.25;88.57
69971;BME280;57301;50.328;8.542;2023-11-25T05:19:13;97922.47;;;2.29;88.40
69971;BME280;57301;50.328;8.542;2023-11-25T05:21:40;97930.97;;;2.22;88.26
69971;BME280;57301;50.328;8.542;2023-11-25T05:24:07;97930.59;;;2.26;88.11
69971;BME280;57301;50.328;8.542;2023-11-25T05:26:34;97928.44;;;2.31;88.46
69971;BME280;57301;50.328;8.542;2023-11-25T05:29:03;97923.44;;;2.28;88.08
69971;BME280;57301;50.328;8.542;2023-11-25T05:31:34;97924.41;;;2.38;87.80
69971;BME280;57301;50.328;8.542;2023-11-25T05:34:01;97922.69;;;2.26;88.77
69971;BME280;57301;50.328;8.542;2023-11-25T05:36:33;97928.22;;;2.23;88.97
69971;BME280;57301;50.328;8.542;2023-11-25T05:39:00;97926.72;;;2.54;87.42
69971;BME280;57301;50.328;8.542;2023-11-25T05:41:27;97929.19;;;2.45;88.41
69971;BME280;57301;50.328;8.542;2023-11-25T05:43:56;97925.25;;;2.39;88.54
69971;BME280;57301;50.328;8.542;2023-11-25T05:46:24;97933.25;;;2.37;88.63
69971;BME280;57301;50.328;8.542;2023-11-25T05:48:52;97926.44;;;2.35;88.64
69971;BME280;57301;50.328;8.542;2023-11-25T05:51:19;97924.66;;;2.35;88.54
69971;BME280;57301;50.328;8.542;2023-11-25T05:53:46;97916.50;;;2.27;89.28
69971;BME280;57301;50.328;8.542;2023-11-25T05:56:13;97915.31;;;2.31;89.00
69971;BME280;57301;50.328;8.542;2023-11-25T05:58:40;97919.13;;;2.38;88.48
69971;BME280;57301;50.328;8.542;2023-11-25T06:01:07;97917.50;;;2.49;88.63
69971;BME280;57301;50.328;8.542;2023-11-25T06:03:34;97911.00;;;2.30;88.84
69971;BME280;57301;50.328;8.542;2023-11-25T06:06:01;97927.03;;;2.38;88.57
69971;BME280;57301;50.328;8.542;2023-11-25T06:08:27;97923.56;;;2.38;88.54
69971;BME280;57301;50.328;8.542;2023-11-25T06:10:55;97928.59;;;2.41;87.82
69971;BME280;57301;50.328;8.542;2023-11-25T06:13:22;97917.56;;;2.25;88.95
69971;BME280;57301;50.328;8.542;2023-11-25T06:15:49;97918.06;;;2.30;88.54
69971;BME280;57301;50.328;8.542;2023-11-25T06:18:18;97913.13;;;2.25;88.99
69971;BME280;57301;50.328;8.542;2023-11-25T06:20:47;97918.06;;;2.30;88.62
69971;BME280;57301;50.328;8.542;2023-11-25T06:23:18;97916.84;;;2.23;89.07
69971;BME280;57301;50.328;8.542;2023-11-25T06:25:45;97902.25;;;2.19;88.86
69971;BME280;57301;50.328;8.542;2023-11-25T06:28:13;97908.72;;;2.26;88.57
69971;BME280;57301;50.328;8.542;2023-11-25T06:30:40;97913.72;;;2.18;88.81
69971;BME280;57301;50.328;8.542;2023-11-25T06:33:07;97911.09;;;2.18;88.50
69971;BME280;57301;50.328;8.542;2023-11-25T06:35:36;97912.88;;;2.17;88.69
69971;BME280;57301;50.328;8.542;2023-11-25T06:38:03;97925.88;;;2.07;89.23
69971;BME280;57301;50.328;8.542;2023-11-25T06:40:31;97921.81;;;2.03;89.63
69971;BME280;57301;50.328;8.542;2023-11-25T06:43:00;97913.56;;;2.08;89.22
69971;BME280;57301;50.328;8.542;2023-11-25T06:45:27;97923.16;;;2.09;88.87
69971;BME280;57301;50.328;8.542;2023-11-25T06:47:54;97926.56;;;1.98;89.09
69971;BME280;57301;50.328;8.542;2023-11-25T06:50:21;97923.53;;;2.15;88.74
69971;BME280;57301;50.328;8.542;2023-11-25T06:52:49;97923.91;;;2.22;88.57
69971;BME280;57301;50.328;8.542;2023-11-25T06:55:18;97919.34;;;2.24;88.48
69971;BME280;57301;50.328;8.542;2023-11-25T06:57:46;97924.41;;;2.38;88.49
69971;BME280;57301;50.328;8.542;2023-11-25T07:00:14;97918.31;;;2.38;88.23
69971;BME280;57301;50.328;8.542;2023-11-25T07:02:41;97918.31;;;2.49;87.39
69971;BME280;57301;50.328;8.542;2023-11-25T07:05:08;97914.81;;;2.26;88.05
69971;BME280;57301;50.328;8.542;2023-11-25T07:07:36;97914.25;;;2.45;87.58
69971;BME280;57301;50.328;8.542;2023-11-25T07:10:03;97914.25;;;2.45;87.49
69971;BME280;57301;50.328;8.542;2023-11-25T07:12:30;97918.44;;;2.36;88.00
69971;BME280;57301;50.328;8.542;2023-11-25T07:14:57;97925.34;;;2.37;88.17
69971;BME280;57301;50.328;8.542;2023-11-25T07:17:23;97910.06;;;2.42;88.15
69971;BME280;57301;50.328;8.542;2023-11-25T07:19:50;97917.63;;;2.47;87.88
69971;BME280;57301;50.328;8.542;2023-11-25T07:22:17;97911.38;;;2.48;88.50
69971;BME280;57301;50.328;8.542;2023-11-25T07:24:43;97908.31;;;2.65;88.33
69971;BME280;57301;50.328;8.542;2023-11-25T07:27:13;97905.19;;;2.72;87.89
69971;BME280;57301;50.328;8.542;2023-11-25T07:29:48;97912.50;;;2.90;87.48
69971;BME280;57301;50.328;8.542;2023-11-25T07:32:15;97908.41;;;2.64;87.77
69971;BME280;57301;50.328;8.542;2023-11-25T07:34:42;97911.19;;;2.96;86.83
69971;BME280;57301;50.328;8.542;2023-11-25T07:37:09;97909.47;;;3.06;86.57
69971;BME280;57301;50.328;8.542;2023-11-25T07:39:35;97909.59;;;3.05;87.30
69971;BME280;57301;50.328;8.542;2023-11-25T07:42:02;97906.69;;;3.19;86.98
69971;BME280;57301;50.328;8.542;2023-11-25T07:44:30;97900.03;;;3.15;86.67
69971;BME280;57301;50.328;8.542;2023-11-25T07:46:58;97898.81;;;3.19;86.39
69971;BME280;57301;50.328;8.542;2023-11-25T07:49:26;97903.97;;;3.20;87.08
69971;BME280;57301;50.328;8.542;2023-11-25T07:51:52;97899.41;;;3.22;86.60
69971;BME280;57301;50.328;8.542;2023-11-25T07:54:20;97905.63;;;3.33;86.69
69971;BME280;57301;50.328;8.542;2023-11-25T07:56:46;97902.34;;;3.52;86.48
69971;BME280;57301;50.328;8.542;2023-11-25T07:59:14;97910.75;;;3.34;86.74
69971;BME280;57301;50.328;8.542;2023-11-25T08:01:40;97896.88;;;3.32;85.59
69971;BME280;57301;50.328;8.542;2023-11-25T08:04:07;97910.06;;;3.32;86.92
69971;BME280;57301;50.328;8.542;2023-11-25T08:06:33;97900.81;;;3.38;86.77
69971;BME280;57301;50.328;8.542;2023-11-25T08:09:00;97906.81;;;3.40;86.35
69971;BME280;57301;50.328;8.542;2023-11-25T08:11:27;97899.84;;;3.50;85.96
69971;BME280;57301;50.328;8.542;2023-11-25T08:13:55;97905.59;;;3.44;85.98
69971;BME280;57301;50.328;8.542;2023-11-25T08:16:22;97893.03;;;3.36;86.71
69971;BME280;57301;50.328;8.542;2023-11-25T08:18:49;97894.00;;;3.35;86.09
69971;BME280;57301;50.328;8.542;2023-11-25T08:21:15;97899.25;;;3.46;86.92
69971;BME280;57301;50.328;8.542;2023-11-25T08:23:42;97899.13;;;3.37;86.82
69971;BME280;57301;50.328;8.542;2023-11-25T08:26:22;97907.47;;;3.53;86.78
69971;BME280;57301;50.328;8.542;2023-11-25T08:28:49;97907.09;;;3.69;85.53
69971;BME280;57301;50.328;8.542;2023-11-25T08:31:16;97905.47;;;3.45;85.87
69971;BME280;57301;50.328;8.542;2023-11-25T08:33:44;97912.03;;;3.62;86.97
69971;BME280;57301;50.328;8.542;2023-11-25T08:36:11;97918.38;;;3.60;85.95
69971;BME280;57301;50.328;8.542;2023-11-25T08:38:38;97914.22;;;3.46;87.09
69971;BME280;57301;50.328;8.542;2023-11-25T08:41:05;97909.78;;;3.46;86.21
69971;BME280;57301;50.328;8.542;2023-11-25T08:43:34;97918.47;;;3.69;86.30
69971;BME280;57301;50.328;8.542;2023-11-25T08:46:00;97919.31;;;3.70;85.91
69971;BME280;57301;50.328;8.542;2023-11-25T08:48:27;97909.97;;;3.66;86.21
69971;BME280;57301;50.328;8.542;2023-11-25T08:50:53;97901.53;;;3.72;85.51
69971;BME280;57301;50.328;8.542;2023-11-25T08:53:20;97902.88;;;3.66;85.07
69971;BME280;57301;50.328;8.542;2023-11-25T08:55:50;97907.09;;;3.69;85.41
69971;BME280;57301;50.328;8.542;2023-11-25T08:58:16;97914.72;;;3.72;85.21
69971;BME280;57301;50.328;8.542;2023-11-25T09:00:43;97898.59;;;3.54;86.25
69971;BME280;57301;50.328;8.542;2023-11-25T09:03:10;97894.59;;;3.39;87.28
69971;BME280;57301;50.328;8.542;2023-11-25T09:05:37;97907.63;;;3.40;88.18
69971;BME280;57301;50.328;8.542;2023-11-25T09:08:07;97904.03;;;3.41;87.76
69971;BME280;57301;50.328;8.542;2023-11-25T09:10:36;97903.81;;;3.44;87.82
69971;BME280;57301;50.328;8.542;2023-11-25T09:13:04;97890.47;;;3.57;87.61
69971;BME280;57301;50.328;8.542;2023-11-25T09:15:31;97898.28;;;3.47;88.07
69971;BME280;57301;50.328;8.542;2023-11-25T09:18:07;97900.78;;;3.49;88.42
69971;BME280;57301;50.328;8.542;2023-11-25T09:20:34;97894.00;;;3.67;87.28
69971;BME280;57301;50.328;8.542;2023-11-25T09:23:01;97894.06;;;3.88;86.64
69971;BME280;57301;50.328;8.542;2023-11-25T09:25:27;97889.19;;;4.25;84.94
69971;BME280;57301;50.328;8.542;2023-11-25T09:27:58;97892.53;;;4.48;83.04
69971;BME280;57301;50.328;8.542;2023-11-25T09:30:25;97892.41;;;4.50;83.79
69971;BME280;57301;50.328;8.542;2023-11-25T09:32:52;97903.84;;;4.39;83.76
69971;BME280;57301;50.328;8.542;2023-11-25T09:35:20;97902.63;;;4.22;84.89
69971;BME280;57301;50.328;8.542;2023-11-25T09:37:47;97902.53;;;4.24;86.02
69971;BME280;57301;50.328;8.542;2023-11-25T09:40:17;97898.28;;;4.12;85.30
69971;BME280;57301;50.328;8.542;2023-11-25T09:42:46;97897.91;;;4.05;85.94
69971;BME280;57301;50.328;8.542;2023-11-25T09:45:14;97894.84;;;4.21;85.71
69971;BME280;57301;50.328;8.542;2023-11-25T09:47:42;97890.53;;;4.20;85.80
69971;BME280;57301;50.328;8.542;2023-11-25T09:50:10;97890.09;;;3.94;86.54
69971;BME280;57301;50.328;8.542;2023-11-25T09:52:58;97888.66;;;4.11;86.18
69971;BME280;57301;50.328;8.542;2023-11-25T09:55:28;97892.13;;;4.11;85.66
69971;BME280;57301;50.328;8.542;2023-11-25T09:57:59;97884.72;;;4.05;86.45
69971;BME280;57301;50.328;8.542;2023-11-25T10:00:31;97884.78;;;4.36;85.38
69971;BME280;57301;50.328;8.542;2023-11-25T10:03:00;97882.50;;;4.42;84.85
69971;BME280;57301;50.328;8.542;2023-11-25T10:05:27;97888.50;;;4.54;85.72
69971;BME280;57301;50.328;8.542;2023-11-25T10:07:57;97890.13;;;4.45;84.74
69971;BME280;57301;50.328;8.542;2023-11-25T10:10:25;97891.03;;;4.35;85.29
69971;BME280;57301;50.328;8.542;2023-11-25T10:12:52;97881.00;;;4.28;84.78
69971;BME280;57301;50.328;8.542;2023-11-25T10:15:20;97878.75;;;4.45;84.45
69971;BME280;57301;50.328;8.542;2023-11-25T10:17:49;97893.56;;;4.36;84.90
69971;BME280;57301;50.328;8.542;2023-11-25T10:20:16;97878.81;;;4.54;85.02
69971;BME280;57301;50.328;8.542;2023-11-25T10:22:50;97884.78;;;4.36;85.13
69971;BME280;57301;50.328;8.542;2023-11-25T10:25:20;97880.63;;;4.33;85.32
69971;BME280;57301;50.328;8.542;2023-11-25T10:27:49;97877.16;;;4.32;85.14
69971;BME280;57301;50.328;8.542;2023-11-25T10:30:18;97876.34;;;4.42;85.65
69971;BME280;57301;50.328;8.542;2023-11-25T10:32:47;97867.09;;;4.26;85.43
69971;BME280;57301;50.328;8.542;2023-11-25T10:35:16;97877.53;;;4.07;86.72
69971;BME280;57301;50.328;8.542;2023-11-25T10:37:42;97874.94;;;4.17;86.63
69971;BME280;57301;50.328;8.542;2023-11-25T10:40:13;97856.16;;;4.31;86.35
69971;BME280;57301;50.328;8.542;2023-11-25T10:42:44;97850.09;;;3.98;86.17
69971;BME280;57301;50.328;8.542;2023-11-25T10:45:15;97851.63;;;4.12;86.49
69971;BME280;57301;50.328;8.542;2023-11-25T10:47:42;97841.00;;;4.02;87.29
69971;BME280;57301;50.328;8.542;2023-11-25T10:50:10;97838.69;;;4.61;85.29
69971;BME280;57301;50.328;8.542;2023-11-25T10:52:37;97838.84;;;4.69;85.00
69971;BME280;57301;50.328;8.542;2023-11-25T10:55:06;97839.97;;;4.45;86.87
69971;BME280;57301;50.328;8.542;2023-11-25T10:57:35;97837.94;;;4.28;87.13
69971;BME280;57301;50.328;8.542;2023-11-25T11:00:02;97826.63;;;4.37;85.92
69971;BME280;57301;50.328;8.542;2023-11-25T11:02:47;97826.94;;;4.84;86.23
69971;BME280;57301;50.328;8.542;2023-11-25T11:08:00;97823.81;;;5.09;86.46
69971;BME280;57301;50.328;8.542;2023-11-25T11:10:54;97825.47;;;4.61;85.75
69971;BME280;57301;50.328;8.542;2023-11-25T11:13:50;97823.34;;;4.85;87.61
69971;BME280;57301;50.328;8.542;2023-11-25T11:16:16;97822.81;;;4.91;87.88
69971;BME280;57301;50.328;8.542;2023-11-25T11:18:46;97819.22;;;5.21;90.33
69971;BME280;57301;50.328;8.542;2023-11-25T11:21:15;97808.81;;;5.10;88.77
69971;BME280;57301;50.328;8.542;2023-11-25T11:23:43;97805.19;;;5.11;88.06
69971;BME280;57301;50.328;8.542;2023-11-25T11:26:58;97807.31;;;4.77;86.61
69971;BME280;57301;50.328;8.542;2023-11-25T11:29:34;97800.78;;;4.81;86.83
69971;BME280;57301;50.328;8.542;2023-11-25T11:32:05;97805.69;;;4.95;86.81
69971;BME280;57301;50.328;8.542;2023-11-25T11:34:34;97808.66;;;5.11;85.53
69971;BME280;57301;50.328;8.542;2023-11-25T11:37:03;97804.63;;;5.17;84.86
69971;BME280;57301;50.328;8.542;2023-11-25T11:45:01;97790.38;;;4.79;85.60
69971;BME280;57301;50.328;8.542;2023-11-25T11:47:39;97805.31;;;5.09;85.83
69971;BME280;57301;50.328;8.542;2023-11-25T11:50:15;97793.94;;;5.38;84.13
69971;BME280;57301;50.328;8.542;2023-11-25T11:52:44;97799.34;;;5.27;84.95
69971;BME280;57301;50.328;8.542;2023-11-25T11:55:54;97799.97;;;4.90;85.10
69971;BME280;57301;50.328;8.542;2023-11-25T11:58:22;97798.34;;;4.99;86.72
69971;BME280;57301;50.328;8.542;2023-11-25T12:03:29;97800.03;;;5.09;85.03
69971;BME280;57301;50.328;8.542;2023-11-25T12:05:57;97802.25;;;5.04;85.76
69971;BME280;57301;50.328;8.542;2023-11-25T12:08:24;97801.13;;;5.07;85.38
69971;BME280;57301;50.328;8.542;2023-11-25T12:10:51;97802.09;;;5.06;85.22
69971;BME280;57301;50.328;8.542;2023-11-25T12:13:28;97794.56;;;4.92;84.88
69971;BME280;57301;50.328;8.542;2023-11-25T12:15:57;97795.00;;;5.06;84.88
69971;BME280;57301;50.328;8.542;2023-11-25T12:18:28;97792.75;;;4.92;84.26
69971;BME280;57301;50.328;8.542;2023-11-25T12:20:57;97792.78;;;5.11;85.43
69971;BME280;57301;50.328;8.542;2023-11-25T12:23:24;97779.19;;;5.16;85.55
69971;BME280;57301;50.328;8.542;2023-11-25T12:26:04;97782.91;;;5.04;85.76
69971;BME280;57301;50.328;8.542;2023-11-25T12:28:40;97775.56;;;5.27;85.86
69971;BME280;57301;50.328;8.542;2023-11-25T12:31:07;97768.59;;;5.26;84.60
69971;BME280;57301;50.328;8.542;2023-11-25T12:33:34;97770.00;;;5.10;86.24
69971;BME280;57301;50.328;8.542;2023-11-25T12:36:01;97773.00;;;4.96;84.99
69971;BME280;57301;50.328;8.542;2023-11-25T12:38:28;97758.31;;;5.03;86.55
69971;BME280;57301;50.328;8.542;2023-11-25T12:40:58;97761.38;;;5.18;85.27
69971;BME280;57301;50.328;8.542;2023-11-25T12:43:24;97760.25;;;5.21;85.43
69971;BME280;57301;50.328;8.542;2023-11-25T12:45:51;97753.31;;;5.29;84.70
69971;BME280;57301;50.328;8.542;2023-11-25T12:48:29;97750.78;;;5.28;84.62
69971;BME280;57301;50.328;8.542;2023-11-25T12:51:03;97746.06;;;5.51;85.93
69971;BME280;57301;50.328;8.542;2023-11-25T12:53:33;97754.28;;;5.28;84.47
69971;BME280;57301;50.328;8.542;2023-11-25T12:56:03;97747.59;;;5.34;84.22
69971;BME280;57301;50.328;8.542;2023-11-25T12:58:30;97739.31;;;6.42;86.78
69971;BME280;57301;50.328;8.542;2023-11-25T13:00:57;97729.28;;;6.45;82.63
69971;BME280;57301;50.328;8.542;2023-11-25T13:03:28;97734.31;;;6.66;83.68
69971;BME280;57301;50.328;8.542;2023-11-25T13:06:06;97731.69;;;6.02;82.65
69971;BME280;57301;50.328;8.542;2023-11-25T13:08:38;97742.06;;;6.13;82.46
69971;BME280;57301;50.328;8.542;2023-11-25T13:11:11;97724.50;;;6.22;81.42
69971;BME280;57301;50.328;8.542;2023-11-25T13:13:38;97737.66;;;6.04;81.11
69971;BME280;57301;50.328;8.542;2023-11-25T13:16:05;97729.59;;;5.76;81.82
69971;BME280;57301;50.328;8.542;2023-11-25T13:18:35;97724.69;;;6.01;81.93
69971;BME280;57301;50.328;8.542;2023-11-25T13:21:01;97724.44;;;5.84;82.46
69971;BME280;57301;50.328;8.542;2023-11-25T13:23:31;97719.13;;;6.04;83.42
69971;BME280;57301;50.328;8.542;2023-11-25T13:25:57;97723.41;;;6.14;83.00
69971;BME280;57301;50.328;8.542;2023-11-25T13:28:24;97723.31;;;5.87;82.59